AEA06 LEMD-GCLA
Flight info
| Callsign | AEA06 |
|---|---|
| Flight time | 2h 41m |
| Altitude | 31000 |
| Route | CCS DCT ELVAR/N0463F350 DCT BEXAL UN866 KUBIL/N0464F370 UN866 KONBA |
| Aircraft | B738/M-SDE2E3FGHIRWXY/LB1 |
Departure
| Time | 2026-05-07 14:17 |
|---|---|
| Airport | Adolfo Suárez Madrid–Barajas Airport (LEMD) |
Arrival
| Time | 2026-05-07 16:59 |
|---|---|
| Airport | La Palma Airport (GCLA) |
| Time | Latitude | Longitude | Altitude | Speed | Heading |
|---|---|---|---|---|---|
| 2026-05-07 14:01 | 40.47273 | -3.57135 | 1988 ft | 0 kts | 138° |
| 2026-05-07 14:08 | 40.47274 | -3.57137 | 1988 ft | 2 kts | 138° |
| 2026-05-07 14:08 | 40.47294 | -3.57159 | 1988 ft | 4 kts | 138° |
| 2026-05-07 14:08 | 40.47309 | -3.57177 | 1988 ft | 4 kts | 110° |
| 2026-05-07 14:09 | 40.47307 | -3.57192 | 1987 ft | 4 kts | 14° |
| 2026-05-07 14:09 | 40.47284 | -3.57197 | 1989 ft | 1 kts | 8° |
| 2026-05-07 14:09 | 40.47261 | -3.57201 | 1987 ft | 4 kts | 7° |
| 2026-05-07 14:09 | 40.47256 | -3.57202 | 1986 ft | 1 kts | 7° |
| 2026-05-07 14:12 | 40.47269 | -3.57200 | 1988 ft | 5 kts | 7° |
| 2026-05-07 14:12 | 40.47328 | -3.57190 | 1988 ft | 12 kts | 7° |
| 2026-05-07 14:13 | 40.47427 | -3.57174 | 1992 ft | 15 kts | 7° |
| 2026-05-07 14:13 | 40.47535 | -3.57195 | 1995 ft | 15 kts | 347° |
| 2026-05-07 14:13 | 40.47585 | -3.57163 | 1995 ft | 8 kts | 54° |
| 2026-05-07 14:13 | 40.47630 | -3.57086 | 1995 ft | 13 kts | 52° |
| 2026-05-07 14:14 | 40.47679 | -3.57054 | 1995 ft | 6 kts | 354° |
| 2026-05-07 14:14 | 40.47715 | -3.57083 | 1997 ft | 7 kts | 323° |
| 2026-05-07 14:14 | 40.47766 | -3.57134 | 1999 ft | 13 kts | 322° |
| 2026-05-07 14:14 | 40.47831 | -3.57200 | 2001 ft | 18 kts | 322° |
| 2026-05-07 14:15 | 40.47951 | -3.57324 | 2004 ft | 25 kts | 322° |
| 2026-05-07 14:15 | 40.48101 | -3.57475 | 2000 ft | 27 kts | 322° |
| 2026-05-07 14:15 | 40.48244 | -3.57622 | 1996 ft | 24 kts | 322° |
| 2026-05-07 14:15 | 40.48347 | -3.57662 | 1995 ft | 7 kts | 37° |
| 2026-05-07 14:16 | 40.48356 | -3.57614 | 1996 ft | 6 kts | 102° |
| 2026-05-07 14:16 | 40.48331 | -3.57534 | 1997 ft | 13 kts | 112° |
| 2026-05-07 14:16 | 40.48283 | -3.57397 | 2000 ft | 19 kts | 128° |
| 2026-05-07 14:16 | 40.48133 | -3.57240 | 2005 ft | 52 kts | 142° |
| 2026-05-07 14:17 | 40.47657 | -3.56753 | 1995 ft | 119 kts | 142° |
| 2026-05-07 14:17 | 40.46861 | -3.55921 | 2004 ft | 172 kts | 141° |
| 2026-05-07 14:17 | 40.45847 | -3.54951 | 2595 ft | 188 kts | 145° |
| 2026-05-07 14:17 | 40.44749 | -3.53975 | 3561 ft | 183 kts | 144° |
| 2026-05-07 14:18 | 40.43752 | -3.52948 | 4422 ft | 189 kts | 143° |
| 2026-05-07 14:18 | 40.42661 | -3.51816 | 4672 ft | 210 kts | 143° |
| 2026-05-07 14:18 | 40.41477 | -3.50593 | 4991 ft | 220 kts | 143° |
| 2026-05-07 14:18 | 40.40259 | -3.49340 | 5541 ft | 223 kts | 143° |
| 2026-05-07 14:19 | 40.39011 | -3.48060 | 6092 ft | 231 kts | 143° |
| 2026-05-07 14:19 | 40.37734 | -3.46754 | 6615 ft | 234 kts | 144° |
| 2026-05-07 14:19 | 40.36452 | -3.45447 | 7202 ft | 236 kts | 144° |
| 2026-05-07 14:19 | 40.35147 | -3.44119 | 7706 ft | 240 kts | 144° |
| 2026-05-07 14:20 | 40.33817 | -3.42769 | 8345 ft | 242 kts | 144° |
| 2026-05-07 14:20 | 40.32487 | -3.41419 | 9025 ft | 244 kts | 144° |
| 2026-05-07 14:20 | 40.31133 | -3.40048 | 9635 ft | 248 kts | 144° |
| 2026-05-07 14:20 | 40.29754 | -3.38681 | 10273 ft | 249 kts | 151° |
| 2026-05-07 14:21 | 40.28158 | -3.37996 | 10943 ft | 246 kts | 180° |
| 2026-05-07 14:21 | 40.26432 | -3.38390 | 11208 ft | 261 kts | 203° |
| 2026-05-07 14:21 | 40.24743 | -3.39378 | 11675 ft | 270 kts | 205° |
| 2026-05-07 14:21 | 40.23016 | -3.40416 | 12261 ft | 275 kts | 205° |
| 2026-05-07 14:22 | 40.21274 | -3.41477 | 12887 ft | 277 kts | 210° |
| 2026-05-07 14:22 | 40.19822 | -3.43126 | 13521 ft | 281 kts | 233° |
| 2026-05-07 14:22 | 40.18923 | -3.45472 | 13748 ft | 301 kts | 251° |
| 2026-05-07 14:22 | 40.18315 | -3.48188 | 13900 ft | 322 kts | 253° |
| 2026-05-07 14:23 | 40.17717 | -3.51103 | 14031 ft | 340 kts | 253° |
| 2026-05-07 14:23 | 40.17100 | -3.54173 | 14162 ft | 359 kts | 254° |
| 2026-05-07 14:23 | 40.16447 | -3.57414 | 14285 ft | 376 kts | 254° |
| 2026-05-07 14:23 | 40.15759 | -3.60788 | 14402 ft | 392 kts | 253° |
| 2026-05-07 14:24 | 40.15038 | -3.64290 | 14657 ft | 403 kts | 253° |
| 2026-05-07 14:24 | 40.14299 | -3.67849 | 15166 ft | 406 kts | 253° |
| 2026-05-07 14:24 | 40.13552 | -3.71420 | 15739 ft | 407 kts | 253° |
| 2026-05-07 14:24 | 40.12801 | -3.74997 | 16266 ft | 410 kts | 253° |
| 2026-05-07 14:25 | 40.12041 | -3.78599 | 16767 ft | 413 kts | 253° |
| 2026-05-07 14:25 | 40.11283 | -3.82185 | 17278 ft | 415 kts | 253° |
| 2026-05-07 14:25 | 40.10509 | -3.85834 | 17766 ft | 418 kts | 253° |
| 2026-05-07 14:25 | 40.09726 | -3.89517 | 18224 ft | 422 kts | 253° |
| 2026-05-07 14:26 | 40.08938 | -3.93222 | 18633 ft | 425 kts | 253° |
| 2026-05-07 14:26 | 40.08142 | -3.96954 | 19044 ft | 428 kts | 253° |
| 2026-05-07 14:26 | 40.07341 | -4.00704 | 19453 ft | 430 kts | 253° |
| 2026-05-07 14:26 | 40.06533 | -4.04481 | 19852 ft | 433 kts | 253° |
| 2026-05-07 14:27 | 40.05718 | -4.08284 | 20239 ft | 436 kts | 253° |
| 2026-05-07 14:27 | 40.04897 | -4.12108 | 20625 ft | 439 kts | 253° |
| 2026-05-07 14:27 | 40.04070 | -4.15956 | 21010 ft | 441 kts | 253° |
| 2026-05-07 14:27 | 40.03237 | -4.19823 | 21382 ft | 444 kts | 253° |
| 2026-05-07 14:28 | 40.02398 | -4.23710 | 21747 ft | 446 kts | 253° |
| 2026-05-07 14:28 | 40.01553 | -4.27615 | 22113 ft | 448 kts | 253° |
| 2026-05-07 14:28 | 40.00703 | -4.31543 | 22462 ft | 451 kts | 253° |
| 2026-05-07 14:28 | 39.99847 | -4.35488 | 22822 ft | 453 kts | 253° |
| 2026-05-07 14:29 | 39.98996 | -4.39401 | 23166 ft | 455 kts | 253° |
| 2026-05-07 14:29 | 39.98685 | -4.40829 | 23291 ft | 455 kts | 253° |
| 2026-05-07 14:29 | 39.97815 | -4.44820 | 23594 ft | 457 kts | 253° |
| 2026-05-07 14:29 | 39.96944 | -4.48815 | 23902 ft | 458 kts | 254° |
| 2026-05-07 14:30 | 39.96068 | -4.52819 | 24233 ft | 458 kts | 254° |
| 2026-05-07 14:30 | 39.95193 | -4.56818 | 24551 ft | 459 kts | 255° |
| 2026-05-07 14:30 | 39.94316 | -4.60814 | 24871 ft | 459 kts | 255° |
| 2026-05-07 14:30 | 39.93434 | -4.64822 | 25160 ft | 460 kts | 255° |
| 2026-05-07 14:31 | 39.92564 | -4.68770 | 25443 ft | 460 kts | 255° |
| 2026-05-07 14:31 | 39.91678 | -4.72788 | 25771 ft | 459 kts | 256° |
| 2026-05-07 14:31 | 39.90797 | -4.76769 | 26191 ft | 456 kts | 256° |
| 2026-05-07 14:31 | 39.89921 | -4.80721 | 26634 ft | 452 kts | 256° |
| 2026-05-07 14:32 | 39.89048 | -4.84648 | 27095 ft | 449 kts | 257° |
| 2026-05-07 14:32 | 39.88182 | -4.88543 | 27520 ft | 446 kts | 257° |
| 2026-05-07 14:32 | 39.87321 | -4.92407 | 27936 ft | 444 kts | 257° |
| 2026-05-07 14:32 | 39.86463 | -4.96253 | 28361 ft | 441 kts | 258° |
| 2026-05-07 14:33 | 39.85608 | -5.00078 | 28784 ft | 438 kts | 258° |
| 2026-05-07 14:33 | 39.84759 | -5.03870 | 29229 ft | 435 kts | 258° |
| 2026-05-07 14:33 | 39.83915 | -5.07631 | 29658 ft | 432 kts | 258° |
| 2026-05-07 14:33 | 39.83074 | -5.11374 | 30065 ft | 429 kts | 259° |
| 2026-05-07 14:34 | 39.82238 | -5.15093 | 30391 ft | 427 kts | 259° |
| 2026-05-07 14:34 | 39.81403 | -5.18797 | 30704 ft | 425 kts | 259° |
| 2026-05-07 14:34 | 39.80571 | -5.22484 | 31016 ft | 423 kts | 259° |
| 2026-05-07 14:34 | 39.79752 | -5.26108 | 31349 ft | 421 kts | 259° |
| 2026-05-07 14:35 | 39.78925 | -5.29756 | 31656 ft | 419 kts | 259° |
| 2026-05-07 14:35 | 39.78104 | -5.33377 | 31968 ft | 417 kts | 259° |
| 2026-05-07 14:35 | 39.77284 | -5.36988 | 32292 ft | 414 kts | 259° |
| 2026-05-07 14:35 | 39.76468 | -5.40573 | 32625 ft | 412 kts | 259° |
| 2026-05-07 14:36 | 39.75656 | -5.44133 | 32954 ft | 409 kts | 259° |
| 2026-05-07 14:36 | 39.74847 | -5.47679 | 33282 ft | 407 kts | 259° |
| 2026-05-07 14:36 | 39.74052 | -5.51156 | 33551 ft | 406 kts | 259° |
| 2026-05-07 14:36 | 39.73249 | -5.54665 | 33841 ft | 404 kts | 259° |
| 2026-05-07 14:37 | 39.72449 | -5.58154 | 34072 ft | 403 kts | 259° |
| 2026-05-07 14:37 | 39.70846 | -5.65137 | 34361 ft | 404 kts | 258° |
| 2026-05-07 14:37 | 39.70040 | -5.68634 | 34522 ft | 404 kts | 258° |
| 2026-05-07 14:38 | 39.69235 | -5.72126 | 34671 ft | 404 kts | 258° |
| 2026-05-07 14:38 | 39.68427 | -5.75621 | 34824 ft | 404 kts | 258° |
| 2026-05-07 14:38 | 39.66803 | -5.82637 | 34854 ft | 406 kts | 258° |
| 2026-05-07 14:39 | 39.65176 | -5.89637 | 34853 ft | 403 kts | 258° |
| 2026-05-07 14:39 | 39.63565 | -5.96547 | 34861 ft | 402 kts | 258° |
| 2026-05-07 14:40 | 39.61946 | -6.03473 | 34859 ft | 401 kts | 258° |
| 2026-05-07 14:40 | 39.60323 | -6.10402 | 34858 ft | 400 kts | 258° |
| 2026-05-07 14:41 | 39.58700 | -6.17304 | 34851 ft | 400 kts | 257° |
| 2026-05-07 14:41 | 39.57071 | -6.24216 | 34860 ft | 400 kts | 258° |
| 2026-05-07 14:42 | 39.55448 | -6.31079 | 34854 ft | 401 kts | 257° |
| 2026-05-07 14:42 | 39.54076 | -6.36869 | 34850 ft | 401 kts | 257° |
| 2026-05-07 14:43 | 39.52422 | -6.43737 | 34849 ft | 403 kts | 254° |
| 2026-05-07 14:43 | 39.50023 | -6.50363 | 34845 ft | 408 kts | 248° |
| 2026-05-07 14:44 | 39.47425 | -6.56873 | 34850 ft | 408 kts | 248° |
| 2026-05-07 14:44 | 39.44844 | -6.63426 | 34851 ft | 409 kts | 248° |
| 2026-05-07 14:45 | 39.42288 | -6.70007 | 34845 ft | 409 kts | 249° |
| 2026-05-07 14:45 | 39.39740 | -6.76589 | 34851 ft | 409 kts | 248° |
| 2026-05-07 14:46 | 39.37187 | -6.83174 | 34841 ft | 409 kts | 248° |
| 2026-05-07 14:46 | 39.34648 | -6.89706 | 34840 ft | 409 kts | 248° |
| 2026-05-07 14:47 | 39.32091 | -6.96271 | 34842 ft | 409 kts | 248° |
| 2026-05-07 14:47 | 39.29529 | -7.02833 | 34849 ft | 409 kts | 248° |
| 2026-05-07 14:48 | 39.26965 | -7.09390 | 34844 ft | 409 kts | 248° |
| 2026-05-07 14:48 | 39.24413 | -7.15902 | 34841 ft | 408 kts | 248° |
| 2026-05-07 14:49 | 39.21673 | -7.22343 | 34843 ft | 413 kts | 240° |
| 2026-05-07 14:49 | 39.17884 | -7.28001 | 34856 ft | 419 kts | 233° |
| 2026-05-07 14:50 | 39.13881 | -7.33476 | 34842 ft | 419 kts | 233° |
| 2026-05-07 14:50 | 39.09896 | -7.38947 | 34855 ft | 418 kts | 233° |
| 2026-05-07 14:51 | 39.05941 | -7.44399 | 34845 ft | 418 kts | 233° |
| 2026-05-07 14:51 | 39.01979 | -7.49863 | 34852 ft | 417 kts | 233° |
| 2026-05-07 14:52 | 38.98015 | -7.55323 | 34850 ft | 417 kts | 233° |
| 2026-05-07 14:52 | 38.94051 | -7.60774 | 34850 ft | 417 kts | 233° |
| 2026-05-07 14:53 | 38.90094 | -7.66206 | 34848 ft | 416 kts | 232° |
| 2026-05-07 14:53 | 38.86133 | -7.71632 | 34857 ft | 416 kts | 232° |
| 2026-05-07 14:54 | 38.82203 | -7.77008 | 34856 ft | 415 kts | 232° |
| 2026-05-07 14:54 | 38.78246 | -7.82411 | 34856 ft | 415 kts | 232° |
| 2026-05-07 14:55 | 38.74282 | -7.87813 | 34863 ft | 414 kts | 232° |
| 2026-05-07 14:55 | 38.70331 | -7.93189 | 34860 ft | 414 kts | 232° |
| 2026-05-07 14:56 | 38.66410 | -7.98515 | 34867 ft | 414 kts | 232° |
| 2026-05-07 14:56 | 38.62456 | -8.03876 | 34867 ft | 413 kts | 232° |
| 2026-05-07 14:57 | 38.58509 | -8.09219 | 34871 ft | 413 kts | 232° |
| 2026-05-07 14:57 | 38.54559 | -8.14556 | 34875 ft | 412 kts | 232° |
| 2026-05-07 14:58 | 38.50615 | -8.19876 | 34877 ft | 412 kts | 232° |
| 2026-05-07 14:58 | 38.46694 | -8.25157 | 34881 ft | 412 kts | 232° |
| 2026-05-07 14:59 | 38.42749 | -8.30460 | 34890 ft | 412 kts | 232° |
| 2026-05-07 14:59 | 38.38803 | -8.35757 | 34895 ft | 411 kts | 232° |
| 2026-05-07 15:00 | 38.34854 | -8.41049 | 34898 ft | 411 kts | 231° |
| 2026-05-07 15:00 | 38.30910 | -8.46324 | 34903 ft | 411 kts | 231° |
| 2026-05-07 15:01 | 38.26967 | -8.51589 | 34902 ft | 411 kts | 231° |
| 2026-05-07 15:01 | 38.23019 | -8.56852 | 34918 ft | 410 kts | 231° |
| 2026-05-07 15:02 | 38.19098 | -8.62070 | 34919 ft | 410 kts | 231° |
| 2026-05-07 15:02 | 38.15154 | -8.67310 | 34924 ft | 410 kts | 231° |
| 2026-05-07 15:03 | 38.11206 | -8.72548 | 34921 ft | 410 kts | 231° |
| 2026-05-07 15:03 | 38.07263 | -8.77767 | 34924 ft | 409 kts | 231° |
| 2026-05-07 15:04 | 38.03320 | -8.82981 | 34934 ft | 409 kts | 231° |
| 2026-05-07 15:04 | 37.99405 | -8.88148 | 34930 ft | 408 kts | 231° |
| 2026-05-07 15:05 | 37.95468 | -8.93336 | 34935 ft | 408 kts | 231° |
| 2026-05-07 15:05 | 37.91531 | -8.98515 | 34931 ft | 407 kts | 231° |
| 2026-05-07 15:06 | 37.87596 | -9.03683 | 34935 ft | 407 kts | 231° |
| 2026-05-07 15:06 | 37.83667 | -9.08833 | 34939 ft | 407 kts | 231° |
| 2026-05-07 15:07 | 37.80398 | -9.13114 | 34933 ft | 407 kts | 231° |
| 2026-05-07 15:07 | 37.76394 | -9.18347 | 34942 ft | 406 kts | 230° |
| 2026-05-07 15:08 | 37.72462 | -9.23480 | 34941 ft | 406 kts | 230° |
| 2026-05-07 15:08 | 37.68525 | -9.28610 | 34947 ft | 406 kts | 230° |
| 2026-05-07 15:09 | 37.64591 | -9.33726 | 34946 ft | 406 kts | 230° |
| 2026-05-07 15:09 | 37.60650 | -9.38845 | 34943 ft | 406 kts | 230° |
| 2026-05-07 15:10 | 37.56742 | -9.43912 | 34946 ft | 405 kts | 230° |
| 2026-05-07 15:10 | 37.52809 | -9.49004 | 34944 ft | 405 kts | 230° |
| 2026-05-07 15:11 | 37.48873 | -9.54090 | 34951 ft | 404 kts | 230° |
| 2026-05-07 15:11 | 37.44942 | -9.59163 | 34951 ft | 404 kts | 230° |
| 2026-05-07 15:12 | 37.41043 | -9.64186 | 34946 ft | 403 kts | 230° |
| 2026-05-07 15:12 | 37.37127 | -9.69223 | 34951 ft | 403 kts | 230° |
| 2026-05-07 15:13 | 37.33204 | -9.74262 | 34953 ft | 402 kts | 230° |
| 2026-05-07 15:13 | 37.29278 | -9.79296 | 34950 ft | 402 kts | 229° |
| 2026-05-07 15:14 | 37.25360 | -9.84312 | 34954 ft | 402 kts | 229° |
| 2026-05-07 15:14 | 37.21440 | -9.89322 | 34955 ft | 402 kts | 229° |
| 2026-05-07 15:15 | 37.17551 | -9.94285 | 34957 ft | 402 kts | 229° |
| 2026-05-07 15:15 | 37.13629 | -9.99282 | 34958 ft | 401 kts | 229° |
| 2026-05-07 15:16 | 37.09707 | -10.04271 | 34957 ft | 401 kts | 229° |
| 2026-05-07 15:16 | 37.05788 | -10.09249 | 34958 ft | 401 kts | 229° |
| 2026-05-07 15:17 | 37.01873 | -10.14214 | 34957 ft | 401 kts | 229° |
| 2026-05-07 15:17 | 36.97957 | -10.19173 | 34961 ft | 400 kts | 229° |
| 2026-05-07 15:18 | 36.94065 | -10.24094 | 34961 ft | 400 kts | 229° |
| 2026-05-07 15:18 | 36.90145 | -10.29041 | 34961 ft | 400 kts | 228° |
| 2026-05-07 15:19 | 36.86224 | -10.33984 | 34964 ft | 400 kts | 228° |
| 2026-05-07 15:19 | 36.82302 | -10.38919 | 34963 ft | 400 kts | 228° |
| 2026-05-07 15:20 | 36.78379 | -10.43848 | 34965 ft | 400 kts | 228° |
| 2026-05-07 15:20 | 36.74486 | -10.48732 | 34965 ft | 399 kts | 228° |
| 2026-05-07 15:21 | 36.70563 | -10.53646 | 34966 ft | 399 kts | 228° |
| 2026-05-07 15:21 | 36.66637 | -10.58556 | 34967 ft | 399 kts | 228° |
| 2026-05-07 15:22 | 36.62715 | -10.63454 | 34966 ft | 399 kts | 227° |
| 2026-05-07 15:22 | 36.58790 | -10.68347 | 34968 ft | 399 kts | 227° |
| 2026-05-07 15:23 | 36.54895 | -10.73197 | 34969 ft | 399 kts | 227° |
| 2026-05-07 15:23 | 36.50969 | -10.78077 | 34968 ft | 399 kts | 227° |
| 2026-05-07 15:24 | 36.47039 | -10.82955 | 34971 ft | 399 kts | 227° |
| 2026-05-07 15:24 | 36.43101 | -10.87836 | 34970 ft | 399 kts | 227° |
| 2026-05-07 15:25 | 36.39167 | -10.92703 | 34971 ft | 399 kts | 227° |
| 2026-05-07 15:25 | 36.35313 | -10.97466 | 34972 ft | 399 kts | 227° |
| 2026-05-07 15:26 | 36.31376 | -11.02323 | 34974 ft | 399 kts | 227° |
| 2026-05-07 15:26 | 36.27438 | -11.07175 | 34977 ft | 399 kts | 227° |
| 2026-05-07 15:27 | 36.23497 | -11.12023 | 34967 ft | 399 kts | 227° |
| 2026-05-07 15:27 | 36.19550 | -11.16870 | 34974 ft | 399 kts | 227° |
| 2026-05-07 15:28 | 36.15604 | -11.21709 | 34967 ft | 399 kts | 226° |
| 2026-05-07 15:28 | 36.11650 | -11.26552 | 34975 ft | 399 kts | 226° |
| 2026-05-07 15:29 | 36.07698 | -11.31385 | 34983 ft | 399 kts | 226° |
| 2026-05-07 15:29 | 36.03771 | -11.36181 | 34975 ft | 399 kts | 226° |
| 2026-05-07 15:30 | 35.99818 | -11.41001 | 34983 ft | 399 kts | 226° |
| 2026-05-07 15:30 | 35.95760 | -11.45693 | 34965 ft | 401 kts | 219° |
| 2026-05-07 15:31 | 35.91204 | -11.49686 | 34980 ft | 402 kts | 218° |
| 2026-05-07 15:31 | 35.86636 | -11.53663 | 34984 ft | 402 kts | 218° |
| 2026-05-07 15:32 | 35.82841 | -11.56979 | 34983 ft | 402 kts | 218° |
| 2026-05-07 15:32 | 35.78277 | -11.60974 | 34985 ft | 402 kts | 218° |
| 2026-05-07 15:33 | 35.73710 | -11.64971 | 34989 ft | 402 kts | 218° |
| 2026-05-07 15:33 | 35.69151 | -11.68956 | 34990 ft | 402 kts | 218° |
| 2026-05-07 15:34 | 35.64607 | -11.72922 | 34988 ft | 402 kts | 218° |
| 2026-05-07 15:34 | 35.60045 | -11.76898 | 34992 ft | 402 kts | 218° |
| 2026-05-07 15:35 | 35.55483 | -11.80868 | 34993 ft | 402 kts | 218° |
| 2026-05-07 15:35 | 35.50915 | -11.84839 | 34989 ft | 402 kts | 218° |
| 2026-05-07 15:36 | 35.46351 | -11.88799 | 34972 ft | 402 kts | 218° |
| 2026-05-07 15:36 | 35.41783 | -11.92758 | 34990 ft | 401 kts | 218° |
| 2026-05-07 15:37 | 35.37215 | -11.96711 | 34989 ft | 401 kts | 218° |
| 2026-05-07 15:37 | 35.32680 | -12.00629 | 34991 ft | 401 kts | 218° |
| 2026-05-07 15:38 | 35.28107 | -12.04576 | 34991 ft | 401 kts | 218° |
| 2026-05-07 15:38 | 35.23541 | -12.08511 | 34991 ft | 401 kts | 217° |
| 2026-05-07 15:39 | 35.19007 | -12.12412 | 34992 ft | 401 kts | 217° |
| 2026-05-07 15:39 | 35.14441 | -12.16336 | 34991 ft | 401 kts | 217° |
| 2026-05-07 15:40 | 35.09875 | -12.20255 | 34992 ft | 401 kts | 217° |
| 2026-05-07 15:40 | 35.05301 | -12.24174 | 34992 ft | 401 kts | 217° |
| 2026-05-07 15:41 | 35.00739 | -12.28078 | 34994 ft | 401 kts | 217° |
| 2026-05-07 15:41 | 34.96169 | -12.31983 | 34994 ft | 401 kts | 217° |
| 2026-05-07 15:42 | 34.91630 | -12.35857 | 34989 ft | 401 kts | 217° |
| 2026-05-07 15:42 | 34.87065 | -12.39747 | 34992 ft | 401 kts | 217° |
| 2026-05-07 15:43 | 34.82491 | -12.43639 | 34989 ft | 401 kts | 217° |
| 2026-05-07 15:43 | 34.77918 | -12.47525 | 34991 ft | 401 kts | 217° |
| 2026-05-07 15:44 | 34.73337 | -12.51413 | 34994 ft | 401 kts | 217° |
| 2026-05-07 15:44 | 34.68761 | -12.55291 | 34993 ft | 401 kts | 217° |
| 2026-05-07 15:45 | 34.64184 | -12.59165 | 34994 ft | 401 kts | 217° |
| 2026-05-07 15:45 | 34.59626 | -12.63018 | 34996 ft | 401 kts | 217° |
| 2026-05-07 15:46 | 34.52751 | -12.68819 | 34993 ft | 401 kts | 217° |
| 2026-05-07 15:47 | 34.48161 | -12.72685 | 34993 ft | 401 kts | 217° |
| 2026-05-07 15:47 | 34.43565 | -12.76552 | 34995 ft | 402 kts | 217° |
| 2026-05-07 15:48 | 34.38972 | -12.80410 | 34995 ft | 402 kts | 217° |
| 2026-05-07 15:48 | 34.34404 | -12.84243 | 34994 ft | 402 kts | 217° |
| 2026-05-07 15:49 | 34.29807 | -12.88096 | 34998 ft | 402 kts | 217° |
| 2026-05-07 15:49 | 34.25200 | -12.91952 | 34994 ft | 402 kts | 217° |
| 2026-05-07 15:50 | 34.20608 | -12.95819 | 34996 ft | 402 kts | 217° |
| 2026-05-07 15:50 | 34.16016 | -12.99691 | 34998 ft | 402 kts | 217° |
| 2026-05-07 15:51 | 34.11451 | -13.03534 | 34994 ft | 402 kts | 217° |
| 2026-05-07 15:51 | 34.06853 | -13.07398 | 34995 ft | 402 kts | 217° |
| 2026-05-07 15:52 | 34.02263 | -13.11250 | 34994 ft | 402 kts | 217° |
| 2026-05-07 15:52 | 33.97665 | -13.15103 | 34992 ft | 402 kts | 217° |
| 2026-05-07 15:53 | 33.93065 | -13.18953 | 34995 ft | 402 kts | 217° |
| 2026-05-07 15:53 | 33.88472 | -13.22792 | 34997 ft | 402 kts | 217° |
| 2026-05-07 15:54 | 33.83875 | -13.26629 | 34998 ft | 402 kts | 217° |
| 2026-05-07 15:54 | 33.79276 | -13.30462 | 34992 ft | 402 kts | 217° |
| 2026-05-07 15:55 | 33.74709 | -13.34264 | 34997 ft | 402 kts | 217° |
| 2026-05-07 15:55 | 33.70111 | -13.38086 | 34996 ft | 402 kts | 217° |
| 2026-05-07 15:56 | 33.65505 | -13.41910 | 34999 ft | 402 kts | 217° |
| 2026-05-07 15:56 | 33.60909 | -13.45720 | 34999 ft | 402 kts | 218° |
| 2026-05-07 15:57 | 33.56312 | -13.49527 | 35002 ft | 401 kts | 218° |
| 2026-05-07 15:57 | 33.51713 | -13.53331 | 35003 ft | 401 kts | 218° |
| 2026-05-07 15:58 | 33.47114 | -13.57129 | 35004 ft | 401 kts | 218° |
| 2026-05-07 15:58 | 33.42510 | -13.60926 | 35001 ft | 401 kts | 218° |
| 2026-05-07 15:59 | 33.37908 | -13.64717 | 35001 ft | 401 kts | 218° |
| 2026-05-07 15:59 | 33.33339 | -13.68475 | 35000 ft | 401 kts | 218° |
| 2026-05-07 16:00 | 33.28740 | -13.72255 | 35002 ft | 401 kts | 218° |
| 2026-05-07 16:00 | 33.24146 | -13.76025 | 35001 ft | 400 kts | 218° |
| 2026-05-07 16:01 | 33.19556 | -13.79787 | 35003 ft | 400 kts | 218° |
| 2026-05-07 16:01 | 33.14955 | -13.83552 | 35001 ft | 400 kts | 218° |
| 2026-05-07 16:02 | 33.10384 | -13.87272 | 35006 ft | 400 kts | 218° |
| 2026-05-07 16:02 | 33.05787 | -13.91000 | 35004 ft | 399 kts | 218° |
| 2026-05-07 16:03 | 33.01187 | -13.94727 | 35001 ft | 399 kts | 218° |
| 2026-05-07 16:03 | 32.96599 | -13.98441 | 35008 ft | 398 kts | 218° |
| 2026-05-07 16:04 | 32.92039 | -14.02129 | 35011 ft | 398 kts | 218° |
| 2026-05-07 16:04 | 32.87456 | -14.05831 | 35003 ft | 398 kts | 218° |
| 2026-05-07 16:05 | 32.82870 | -14.09532 | 35005 ft | 398 kts | 218° |
| 2026-05-07 16:05 | 32.78275 | -14.13234 | 35000 ft | 398 kts | 218° |
| 2026-05-07 16:06 | 32.73709 | -14.16909 | 35006 ft | 399 kts | 218° |
| 2026-05-07 16:06 | 32.69108 | -14.20607 | 35004 ft | 399 kts | 218° |
| 2026-05-07 16:07 | 32.64495 | -14.24309 | 35007 ft | 400 kts | 219° |
| 2026-05-07 16:07 | 32.59881 | -14.28009 | 35008 ft | 400 kts | 219° |
| 2026-05-07 16:08 | 32.55259 | -14.31709 | 35003 ft | 401 kts | 219° |
| 2026-05-07 16:08 | 32.50631 | -14.35410 | 35001 ft | 401 kts | 219° |
| 2026-05-07 16:09 | 32.46024 | -14.39090 | 35003 ft | 402 kts | 219° |
| 2026-05-07 16:09 | 32.41374 | -14.42799 | 35006 ft | 403 kts | 219° |
| 2026-05-07 16:10 | 32.36723 | -14.46504 | 35004 ft | 403 kts | 219° |
| 2026-05-07 16:10 | 32.32069 | -14.50207 | 35003 ft | 404 kts | 219° |
| 2026-05-07 16:11 | 32.27401 | -14.53916 | 35004 ft | 404 kts | 219° |
| 2026-05-07 16:11 | 32.22728 | -14.57625 | 35009 ft | 405 kts | 219° |
| 2026-05-07 16:12 | 32.18051 | -14.61332 | 35006 ft | 405 kts | 219° |
| 2026-05-07 16:12 | 32.13364 | -14.65043 | 35012 ft | 406 kts | 219° |
| 2026-05-07 16:13 | 32.08671 | -14.68753 | 35014 ft | 406 kts | 219° |
| 2026-05-07 16:13 | 32.03973 | -14.72463 | 35013 ft | 407 kts | 219° |
| 2026-05-07 16:14 | 31.99289 | -14.76157 | 35007 ft | 407 kts | 219° |
| 2026-05-07 16:14 | 31.94575 | -14.79870 | 35009 ft | 408 kts | 219° |
| 2026-05-07 16:15 | 31.89868 | -14.83573 | 35013 ft | 408 kts | 220° |
| 2026-05-07 16:15 | 31.85138 | -14.87289 | 35002 ft | 409 kts | 220° |
| 2026-05-07 16:16 | 31.80407 | -14.91002 | 35007 ft | 409 kts | 220° |
| 2026-05-07 16:16 | 31.75659 | -14.94723 | 35010 ft | 410 kts | 220° |
| 2026-05-07 16:17 | 31.70925 | -14.98429 | 35006 ft | 411 kts | 220° |
| 2026-05-07 16:17 | 31.66152 | -15.02160 | 35007 ft | 412 kts | 220° |
| 2026-05-07 16:18 | 31.61374 | -15.05891 | 35006 ft | 413 kts | 220° |
| 2026-05-07 16:18 | 31.56614 | -15.09603 | 35009 ft | 414 kts | 220° |
| 2026-05-07 16:19 | 31.51806 | -15.13348 | 35009 ft | 414 kts | 220° |
| 2026-05-07 16:19 | 31.47815 | -15.16453 | 35009 ft | 415 kts | 220° |
| 2026-05-07 16:20 | 31.42986 | -15.20206 | 35009 ft | 416 kts | 220° |
| 2026-05-07 16:20 | 31.38158 | -15.23954 | 35006 ft | 417 kts | 220° |
| 2026-05-07 16:21 | 31.33325 | -15.27701 | 35007 ft | 418 kts | 220° |
| 2026-05-07 16:21 | 31.28418 | -15.31399 | 35002 ft | 421 kts | 217° |
| 2026-05-07 16:22 | 31.23265 | -15.34715 | 35008 ft | 424 kts | 215° |
| 2026-05-07 16:22 | 31.18077 | -15.37932 | 35000 ft | 425 kts | 215° |
| 2026-05-07 16:23 | 31.12856 | -15.41206 | 35002 ft | 425 kts | 215° |
| 2026-05-07 16:23 | 31.07639 | -15.44510 | 34999 ft | 426 kts | 215° |
| 2026-05-07 16:24 | 31.02424 | -15.47823 | 35002 ft | 427 kts | 215° |
| 2026-05-07 16:24 | 30.97189 | -15.51146 | 35010 ft | 428 kts | 215° |
| 2026-05-07 16:25 | 30.91948 | -15.54469 | 35005 ft | 429 kts | 215° |
| 2026-05-07 16:25 | 30.86730 | -15.57772 | 35003 ft | 430 kts | 215° |
| 2026-05-07 16:26 | 30.81462 | -15.61102 | 35006 ft | 431 kts | 215° |
| 2026-05-07 16:26 | 30.76185 | -15.64434 | 35008 ft | 432 kts | 215° |
| 2026-05-07 16:27 | 30.70890 | -15.67772 | 35006 ft | 433 kts | 215° |
| 2026-05-07 16:27 | 30.65593 | -15.71108 | 35008 ft | 434 kts | 215° |
| 2026-05-07 16:28 | 30.60271 | -15.74456 | 35011 ft | 435 kts | 215° |
| 2026-05-07 16:28 | 30.54974 | -15.77783 | 35005 ft | 436 kts | 215° |
| 2026-05-07 16:29 | 30.49636 | -15.81133 | 35010 ft | 437 kts | 215° |
| 2026-05-07 16:29 | 30.44275 | -15.84492 | 35006 ft | 438 kts | 215° |
| 2026-05-07 16:30 | 30.38903 | -15.87854 | 35004 ft | 439 kts | 215° |
| 2026-05-07 16:30 | 30.33557 | -15.91195 | 35002 ft | 440 kts | 215° |
| 2026-05-07 16:31 | 30.28148 | -15.94572 | 35007 ft | 441 kts | 215° |
| 2026-05-07 16:31 | 30.22740 | -15.97944 | 35002 ft | 442 kts | 215° |
| 2026-05-07 16:32 | 30.17346 | -16.01303 | 35005 ft | 443 kts | 215° |
| 2026-05-07 16:32 | 30.11905 | -16.04686 | 35003 ft | 444 kts | 214° |
| 2026-05-07 16:33 | 30.06460 | -16.08068 | 35005 ft | 445 kts | 214° |
| 2026-05-07 16:33 | 30.01003 | -16.11454 | 35005 ft | 446 kts | 214° |
| 2026-05-07 16:34 | 29.95532 | -16.14843 | 35007 ft | 447 kts | 214° |
| 2026-05-07 16:34 | 29.90042 | -16.18240 | 35003 ft | 448 kts | 214° |
| 2026-05-07 16:35 | 29.84536 | -16.21643 | 35009 ft | 449 kts | 214° |
| 2026-05-07 16:35 | 29.79053 | -16.25028 | 35006 ft | 450 kts | 214° |
| 2026-05-07 16:36 | 29.73532 | -16.28432 | 35005 ft | 451 kts | 214° |
| 2026-05-07 16:36 | 29.67988 | -16.31845 | 35006 ft | 452 kts | 214° |
| 2026-05-07 16:37 | 29.62436 | -16.35261 | 35005 ft | 453 kts | 214° |
| 2026-05-07 16:37 | 29.57061 | -16.38959 | 35008 ft | 446 kts | 223° |
| 2026-05-07 16:38 | 29.52295 | -16.43480 | 34497 ft | 452 kts | 226° |
| 2026-05-07 16:38 | 29.49907 | -16.45828 | 33897 ft | 451 kts | 226° |
| 2026-05-07 16:38 | 29.47517 | -16.48162 | 33145 ft | 452 kts | 225° |
| 2026-05-07 16:38 | 29.45107 | -16.50486 | 32417 ft | 452 kts | 225° |
| 2026-05-07 16:39 | 29.42675 | -16.52806 | 31676 ft | 453 kts | 225° |
| 2026-05-07 16:39 | 29.40241 | -16.55111 | 30941 ft | 455 kts | 225° |
| 2026-05-07 16:39 | 29.37784 | -16.57426 | 30171 ft | 457 kts | 224° |
| 2026-05-07 16:39 | 29.35320 | -16.59741 | 29243 ft | 459 kts | 224° |
| 2026-05-07 16:40 | 29.32871 | -16.62040 | 28359 ft | 460 kts | 224° |
| 2026-05-07 16:40 | 29.30359 | -16.64396 | 27455 ft | 461 kts | 224° |
| 2026-05-07 16:40 | 29.27906 | -16.66695 | 26550 ft | 462 kts | 224° |
| 2026-05-07 16:40 | 29.25403 | -16.69040 | 25681 ft | 463 kts | 223° |
| 2026-05-07 16:41 | 29.22916 | -16.71368 | 25036 ft | 458 kts | 223° |
| 2026-05-07 16:41 | 29.20458 | -16.73666 | 24354 ft | 455 kts | 223° |
| 2026-05-07 16:41 | 29.18015 | -16.75951 | 23681 ft | 451 kts | 223° |
| 2026-05-07 16:41 | 29.15591 | -16.78217 | 22917 ft | 448 kts | 223° |
| 2026-05-07 16:42 | 29.13189 | -16.80462 | 22215 ft | 443 kts | 223° |
| 2026-05-07 16:42 | 29.10844 | -16.82651 | 21548 ft | 438 kts | 223° |
| 2026-05-07 16:42 | 29.08496 | -16.84843 | 20891 ft | 434 kts | 223° |
| 2026-05-07 16:42 | 29.06167 | -16.87015 | 20254 ft | 429 kts | 223° |
| 2026-05-07 16:43 | 29.03861 | -16.89166 | 19619 ft | 425 kts | 223° |
| 2026-05-07 16:43 | 29.01574 | -16.91297 | 18987 ft | 421 kts | 222° |
| 2026-05-07 16:43 | 28.99309 | -16.93407 | 18347 ft | 418 kts | 222° |
| 2026-05-07 16:43 | 28.97058 | -16.95503 | 17629 ft | 415 kts | 222° |
| 2026-05-07 16:44 | 28.94851 | -16.97556 | 16973 ft | 411 kts | 222° |
| 2026-05-07 16:44 | 28.92640 | -16.99611 | 16335 ft | 407 kts | 222° |
| 2026-05-07 16:44 | 28.90458 | -17.01639 | 15713 ft | 404 kts | 222° |
| 2026-05-07 16:44 | 28.88287 | -17.03655 | 15100 ft | 400 kts | 222° |
| 2026-05-07 16:45 | 28.86135 | -17.05652 | 14493 ft | 397 kts | 221° |
| 2026-05-07 16:45 | 28.83998 | -17.07635 | 13865 ft | 395 kts | 221° |
| 2026-05-07 16:45 | 28.81861 | -17.09617 | 13186 ft | 393 kts | 221° |
| 2026-05-07 16:45 | 28.79742 | -17.11580 | 12551 ft | 390 kts | 221° |
| 2026-05-07 16:46 | 28.77648 | -17.13519 | 11932 ft | 387 kts | 221° |
| 2026-05-07 16:46 | 28.75566 | -17.15447 | 11368 ft | 384 kts | 221° |
| 2026-05-07 16:46 | 28.73531 | -17.17327 | 11225 ft | 369 kts | 221° |
| 2026-05-07 16:46 | 28.71573 | -17.19136 | 11050 ft | 356 kts | 221° |
| 2026-05-07 16:47 | 28.69678 | -17.20886 | 10891 ft | 344 kts | 221° |
| 2026-05-07 16:47 | 28.67845 | -17.22578 | 10743 ft | 333 kts | 221° |
| 2026-05-07 16:47 | 28.66068 | -17.24219 | 10601 ft | 323 kts | 221° |
| 2026-05-07 16:47 | 28.64368 | -17.25789 | 10476 ft | 314 kts | 221° |
| 2026-05-07 16:48 | 28.62693 | -17.27334 | 10344 ft | 305 kts | 221° |
| 2026-05-07 16:48 | 28.61066 | -17.28835 | 10210 ft | 297 kts | 221° |
| 2026-05-07 16:48 | 28.59485 | -17.30293 | 10086 ft | 289 kts | 221° |
| 2026-05-07 16:48 | 28.57942 | -17.31716 | 9905 ft | 283 kts | 221° |
| 2026-05-07 16:49 | 28.56410 | -17.33128 | 9588 ft | 282 kts | 222° |
| 2026-05-07 16:49 | 28.54890 | -17.34529 | 9300 ft | 280 kts | 222° |
| 2026-05-07 16:49 | 28.53380 | -17.35920 | 9006 ft | 279 kts | 221° |
| 2026-05-07 16:49 | 28.51893 | -17.37290 | 8717 ft | 278 kts | 222° |
| 2026-05-07 16:50 | 28.50392 | -17.38671 | 8417 ft | 277 kts | 221° |
| 2026-05-07 16:50 | 28.48894 | -17.40049 | 8126 ft | 276 kts | 221° |
| 2026-05-07 16:50 | 28.47398 | -17.41424 | 7822 ft | 276 kts | 221° |
| 2026-05-07 16:50 | 28.45908 | -17.42792 | 7526 ft | 275 kts | 221° |
| 2026-05-07 16:51 | 28.44432 | -17.44173 | 7222 ft | 274 kts | 226° |
| 2026-05-07 16:51 | 28.43425 | -17.45969 | 6847 ft | 271 kts | 254° |
| 2026-05-07 16:51 | 28.43166 | -17.48089 | 6443 ft | 272 kts | 271° |
| 2026-05-07 16:51 | 28.43156 | -17.50240 | 6097 ft | 273 kts | 271° |
| 2026-05-07 16:52 | 28.43149 | -17.52391 | 5797 ft | 272 kts | 271° |
| 2026-05-07 16:52 | 28.43133 | -17.54536 | 5501 ft | 271 kts | 271° |
| 2026-05-07 16:52 | 28.43110 | -17.56672 | 5209 ft | 270 kts | 271° |
| 2026-05-07 16:52 | 28.43085 | -17.58801 | 4929 ft | 268 kts | 271° |
| 2026-05-07 16:53 | 28.43058 | -17.60916 | 4642 ft | 267 kts | 271° |
| 2026-05-07 16:53 | 28.43030 | -17.63013 | 4451 ft | 262 kts | 271° |
| 2026-05-07 16:53 | 28.43002 | -17.65056 | 4338 ft | 254 kts | 271° |
| 2026-05-07 16:53 | 28.42974 | -17.66984 | 4267 ft | 239 kts | 271° |
| 2026-05-07 16:54 | 28.42947 | -17.68819 | 4168 ft | 226 kts | 271° |
| 2026-05-07 16:54 | 28.42922 | -17.70550 | 4051 ft | 213 kts | 271° |
| 2026-05-07 16:54 | 28.42897 | -17.72181 | 3939 ft | 200 kts | 272° |
| 2026-05-07 16:54 | 28.43027 | -17.73704 | 3666 ft | 192 kts | 297° |
| 2026-05-07 16:55 | 28.43853 | -17.74790 | 3456 ft | 177 kts | 332° |
| 2026-05-07 16:55 | 28.44989 | -17.75191 | 3236 ft | 168 kts | 360° |
| 2026-05-07 16:55 | 28.46154 | -17.75220 | 3078 ft | 168 kts | 0° |
| 2026-05-07 16:55 | 28.47339 | -17.75254 | 2855 ft | 169 kts | 0° |
| 2026-05-07 16:56 | 28.48504 | -17.75284 | 2708 ft | 165 kts | 1° |
| 2026-05-07 16:56 | 28.49667 | -17.75308 | 2517 ft | 170 kts | 0° |
| 2026-05-07 16:56 | 28.52018 | -17.75354 | 2054 ft | 167 kts | 2° |
| 2026-05-07 16:57 | 28.53160 | -17.75377 | 1825 ft | 166 kts | 1° |
| 2026-05-07 16:57 | 28.54321 | -17.75400 | 1608 ft | 167 kts | 2° |
| 2026-05-07 16:57 | 28.55491 | -17.75422 | 1378 ft | 168 kts | 2° |
| 2026-05-07 16:57 | 28.56654 | -17.75445 | 1145 ft | 167 kts | 2° |
| 2026-05-07 16:58 | 28.57813 | -17.75463 | 911 ft | 168 kts | 2° |
| 2026-05-07 16:58 | 28.58979 | -17.75479 | 736 ft | 167 kts | 359° |
| 2026-05-07 16:58 | 28.60151 | -17.75495 | 495 ft | 168 kts | 359° |
| 2026-05-07 16:58 | 28.61309 | -17.75526 | 226 ft | 164 kts | 357° |
| 2026-05-07 16:59 | 28.62415 | -17.75553 | 113 ft | 152 kts | 358° |
| 2026-05-07 16:59 | 28.63312 | -17.75575 | 88 ft | 98 kts | 359° |
| 2026-05-07 16:59 | 28.63603 | -17.75564 | 68 ft | 15 kts | 324° |
| 2026-05-07 16:59 | 28.63610 | -17.75589 | 73 ft | 1 kts | 255° |
| 2026-05-07 17:00 | 28.63599 | -17.75597 | 74 ft | 2 kts | 189° |
| 2026-05-07 17:00 | 28.63573 | -17.75592 | 75 ft | 6 kts | 171° |
| 2026-05-07 17:00 | 28.63506 | -17.75583 | 73 ft | 13 kts | 175° |
| 2026-05-07 17:00 | 28.63400 | -17.75580 | 81 ft | 18 kts | 179° |
| 2026-05-07 17:01 | 28.63261 | -17.75574 | 87 ft | 22 kts | 177° |
| 2026-05-07 17:01 | 28.63095 | -17.75573 | 92 ft | 26 kts | 180° |
| 2026-05-07 17:01 | 28.62908 | -17.75567 | 100 ft | 28 kts | 179° |
| 2026-05-07 17:01 | 28.62701 | -17.75558 | 104 ft | 30 kts | 167° |
| 2026-05-07 17:02 | 28.62581 | -17.75462 | 109 ft | 0 kts | 140° |
| 2026-05-07 17:02 | 28.62578 | -17.75459 | 109 ft | 3 kts | 143° |
| 2026-05-07 17:03 | 28.62537 | -17.75448 | 110 ft | 10 kts | 176° |
| 2026-05-07 17:03 | 28.62436 | -17.75447 | 109 ft | 19 kts | 179° |
| 2026-05-07 17:03 | 28.62304 | -17.75444 | 113 ft | 16 kts | 178° |
| 2026-05-07 17:03 | 28.62246 | -17.75379 | 113 ft | 6 kts | 85° |
| 2026-05-07 17:04 | 28.62246 | -17.75361 | 113 ft | 0 kts | 88° |